Aérodrome :
LOGIN :

S'inscrire | Disclaimer

   EN    FR    IT 

 










Légende :    VFR   VFR Marginal   IFR   IFR Intensif   IFR Très Intensif
Visi : 
Plafond : 
>= 8 km
>= 3000ft
5 à 8 km
1000 à 3000 ft
1500m à 5 km
500 à 1000 ft
800 à 1500m
200 à 500 ft
< 800m
< 200 ft
Symboles :   Orages  Brouillard  Fortes neiges  Fortes précipitations  Vent > 20 kt
SIGMETs :   Divers  Orages  Givrage  Turbulence  Onde Orograph.  Cendres Volcan.







- Altitude de l'aérodrome : 7 ft
- Code IATA : VCE


LIPZ - Marco Polo Int. Venezia

DERNIER METAR :
  • 270750Z 04007KT 9999 -RA FEW005 BKN062 15/14 Q1011 RERA NOSIG

METARs EXPIRÉS :
  • 270720Z 03008KT 9999 RA SCT004 BKN044 15/15 Q1011 NOSIG
  • 270650Z 04007KT 9000 -RA FEW005 SCT025 BKN045 16/15 Q1011 NOSIG
  • 270620Z 08008KT 9000 -RA SCT009 OVC045 15/14 Q1011 RERA NOSIG
  • 270550Z 08005KT 050V110 7000 RA FEW006 SCT013 OVC037 15/14 Q1011 NOSIG
  • 270520Z 12006KT 8000 -RA FEW005 SCT011 OVC036 15/14 Q1011 NOSIG

TAF TAF LIPZ
Valide du 27 à 06h jusqu'au 28 à 12h UTC


270500Z 2706/2812 06012KT 8000 RA SCT010 BKN040
TEMPO 2711/2724 3000 SHRA
Pas de NOTAMs connus pour ce terrain.
1 SIGMET publié pour la FIR Milano (LIMM) :
 
Turbulence forte
LIMM SIGMET 2 VALID 270650/271050 LIIP
LIMM MILANO FIR SEV TURB FCST WI N4340 E01201 - N4545 E00746 - N4613 E01036 - N4328 E01431 - N4340 E01201 FL300/400 STNR NC=



MET'MAP, la Météo Aéronautique d'un coup d'oeil ! - Copyright ORBIFLY Décembre 2007 - Disclaimer

ORBIFLY MET'MAP TEAM :

Programmation & Développement : Alexandra Zaïnal
Conception & Développement : Baudouin d'Aumeries
Co-Programmation & Développement : Marc-Olivier Méhu
Soutien technique & logistique : Manuel Goepfert

Contact : metmap@orbifly.com




SOURCES & CREDITS :

   NOAA